Flight Track Log - Related Links

Times and Time Zones

All times are in EDT time to prevent confusion due to time zone crossing. See the LBQ968 flight status page for this flight to view local times or setup timezone preferences in your user account.

Time Position Orientation Groundspeed Altitude Reporting Facility
EDT Latitude Longitude Course Direction KTS MPH feet Rate Location/Type
Sat 10:24:07 PM 40.2550 -79.8942 175° South 129 148 5,100  Level Cleveland Center
Sat 10:25:08 PM 40.2203 -79.8903 175° South 129 148 6,300 934 Climbing Cleveland Center
Sat 10:26:09 PM 40.1861 -79.8853 174° South 127 146 7,000 397 Climbing Cleveland Center
Sat 10:27:00 PM 40.0521 -79.9000 180° South  Level FlightAware Approximate
Sat 10:27:09 PM 40.1408 -79.8789 174° South 157 181 7,100  Level Cleveland Center
Sat 10:28:00 PM 40.0025 -79.8952 176° South  Level FlightAware Approximate
Sat 10:28:10 PM 40.0981 -79.8378 144° Southeast 189 217 7,100  Level Cleveland Center
Sat 10:29:11 PM 40.0547 -79.7975 145° Southeast 190 219 7,100  Level Cleveland Center
Sat 10:30:11 PM 40.0117 -79.7567 144° Southeast 192 221 7,100  Level Cleveland Center
Sat 10:31:12 PM 39.9681 -79.7150 144° Southeast 192 221 7,100  Level Cleveland Center
Sat 10:32:13 PM 39.9228 -79.6731 145° Southeast 193 222 7,100  Level Cleveland Center
Sat 10:33:13 PM 39.8697 -79.6231 144° Southeast 194 223 7,100  Level Cleveland Center
Sat 10:34:14 PM 39.8261 -79.5808 143° Southeast 195 224 7,100  Level Cleveland Center
Sat 10:35:14 PM 39.7828 -79.5367 142° Southeast 195 224 7,100  Level Cleveland Center
Sat 10:36:15 PM 39.7378 -79.4950 145° Southeast 196 226 7,100  Level Cleveland Center
Sat 10:37:16 PM 39.6939 -79.4539 144° Southeast 196 226 7,100  Level Cleveland Center
Sat 10:38:16 PM 39.6486 -79.4122 145° Southeast 197 227 7,100  Level Cleveland Center
Sat 10:39:17 PM 39.6036 -79.3717 145° Southeast 197 227 7,100  Level Cleveland Center
Sat 10:40:18 PM 39.5600 -79.3269 142° Southeast 199 229 7,100 -50 Level Cleveland Center
Sat 10:41:18 PM 39.5161 -79.2817 141° Southeast 200 230 7,000 -50 Descending Cleveland Center
Sat 10:42:19 PM 39.4725 -79.2394 143° Southeast 200 230 7,000  Level Cleveland Center
Sat 10:43:20 PM 39.4297 -79.1922 140° Southeast 200 230 7,000  Level Cleveland Center
Sat 10:44:20 PM 39.3875 -79.1467 140° Southeast 200 230 7,000 50 Level Cleveland Center
Sat 10:45:21 PM 39.3397 -79.0964 141° Southeast 203 234 7,100 49 Climbing Washington Center
Sat 10:46:23 PM 39.2953 -79.0486 140° Southeast 203 234 7,100  Level Washington Center
Sat 10:47:21 PM 39.2506 -79.0036 142° Southeast 203 234 7,100  Level Washington Center
Sat 10:48:22 PM 39.2275 -78.9408 115° Southeast 198 228 7,100  Level Washington Center
Sat 10:49:21 PM 39.2128 -78.8678 105° East 198 228 7,100  Level Washington Center
Sat 10:50:22 PM 39.2022 -78.7950 101° East 203 234 7,100  Level Washington Center
Sat 10:51:23 PM 39.1917 -78.7194 100° East 203 234 7,100  Level Washington Center
Sat 10:52:22 PM 39.1831 -78.6469 99° East 203 234 7,100  Level Washington Center
Sat 10:53:22 PM 39.1767 -78.5744 96° East 203 234 7,100  Level Washington Center
Sat 10:54:22 PM 39.1742 -78.4992 92° East 203 234 7,100  Level Washington Center
Sat 10:55:21 PM 39.1697 -78.4242 94° East 203 234 7,100  Level Washington Center
Sat 10:56:23 PM 39.1672 -78.3517 93° East 203 234 7,100 -600 Level Washington Center
Sat 10:58:51 PM 39.1500 -78.1500 96° East 223 257 5,000 -589 Descending Potomac TRACON
Sat 10:59:57 PM 39.1167 -78.0667 117° Southeast 210 242 5,000 -105 Level Potomac TRACON
Sat 11:00:45 PM 39.1000 -78.0167 113° Southeast 209 241 4,800 -529 Descending Potomac TRACON
Sat 11:01:39 PM 39.0667 -77.9667 131° Southeast 219 252 4,100 -684 Descending Potomac TRACON
Sat 11:02:39 PM 39.0333 -77.9000 123° Southeast 215 247 3,500 -316 Descending Potomac TRACON
Sat 11:03:33 PM 39.0000 -77.8500 131° Southeast 199 229 3,500 -53 Level Potomac TRACON
Sat 11:04:33 PM 38.9500 -77.8000 142° Southeast 195 224 3,400 -421 Descending Potomac TRACON
Sat 11:05:27 PM 38.9167 -77.7667 142° Southeast 209 241 2,700 -421 Descending Potomac TRACON
Sat 11:06:27 PM 38.8833 -77.7167 131° Southeast 194 223 2,600 -142 Descending Potomac TRACON
Sat 11:07:34 PM 38.8500 -77.6500 123° Southeast 169 194 2,400 -331 Descending Potomac TRACON
Sat 11:08:34 PM 38.8167 -77.6167 142° Southeast 176 203 1,900 -421 Descending Potomac TRACON
Sat 11:09:28 PM 38.7833 -77.5833 142° Southeast 135 155 1,600 -421 Descending Potomac TRACON
Sat 11:10:28 PM 38.7667 -77.5500 123° Southeast 113 130 1,100 -300 Descending Potomac TRACON
Sat 11:11:28 PM 38.7333 -77.5333 159° South 107 123 1,000 -100 Descending Potomac TRACON
Sat 11:13:00 PM 38.7210 -77.5151 138° Southeast  Level Estimated
Sat 11:20:00 PM 38.7210 -77.5151 138° Southeast  Level Estimated
Sat 11:21:00 PM 38.7210 -77.5151 110° East  Level Estimated

Login

Don't have an account? Register now (free) for customized features, flight alerts, and more!